Latest Weather Observations for Holsworthy (Defence)

IDN60901

Issued at 8:21 pm EDT Tuesday 23 October 2018 (issued every 10 minutes, with the page automatically refreshed every 10 minutes)

About weather observations | Map of Sydney area stations | Latest observations for Sydney area | Other Formats
Station Details ID: 068263 Name: HOLSWORTHY (DEFENCE) Lat: -34.08 Lon: 150.90 Height: 165.0 m
Data from the previous 72 hours. | See also: Recent months for locations in New South Wales
Date/Time
EDT
Temp
°C
App
Temp
°C
Dew
Point
°C
Rel
Hum
%
Delta-T
°C
Wind Press
QNH
hPa
Press
MSL
hPa
Rain since
9am
mm
Dir  Spd
km/h
Gust
km/h
Spd
kts
Gust
kts
23/08:00pm 21.8 22.6 16.3 71 3.3 SE 7 11 4 6 - - 0.0
23/07:30pm 22.7 23.6 16.0 66 4.1 E 6 7 3 4 - - 0.0
23/07:00pm 23.7 24.6 16.0 62 4.7 E 6 9 3 5 - - 0.0
23/06:30pm 24.5 25.2 16.2 60 5.1 ENE 7 17 4 9 - - 0.0
23/06:00pm 25.8 26.5 16.1 55 6.0 ENE 7 15 4 8 - - 0.0
23/05:30pm 26.9 27.5 16.8 54 6.3 NE 9 17 5 9 - - 0.0
23/05:00pm 27.6 27.1 15.9 49 7.2 NE 13 24 7 13 - - 0.0
23/04:30pm 28.5 27.8 15.4 45 8.1 NE 13 24 7 13 - - 0.0
23/04:00pm 29.3 29.0 15.4 42 8.6 NE 11 20 6 11 - - 0.0
23/03:30pm 29.2 28.6 15.7 44 8.4 ENE 13 24 7 13 - - 0.0
23/03:00pm 29.2 29.1 16.0 44 8.2 ENE 11 19 6 10 - - 0.0
23/02:30pm 28.6 28.1 15.8 45 7.9 ENE 13 20 7 11 - - 0.0
23/02:00pm 29.4 28.6 12.8 36 9.9 N 9 19 5 10 - - 0.0
23/01:30pm 28.6 28.2 14.1 41 8.8 NNE 9 19 5 10 - - 0.0
23/01:00pm 27.8 27.9 15.5 47 7.6 NNE 9 17 5 9 - - 0.0
23/12:30pm 28.1 28.1 15.1 45 8.0 N 9 20 5 11 - - 0.0
23/12:00pm 27.2 26.7 15.9 50 7.0 N 13 20 7 11 - - 0.0
23/11:30am 26.0 25.2 15.1 51 6.6 N 13 22 7 12 - - 0.0
23/11:00am 24.9 24.6 15.5 56 5.7 N 11 17 6 9 - - 0.0
23/10:30am 23.6 24.1 15.6 61 4.9 N 7 13 4 7 - - 0.0
23/10:00am 22.3 23.0 15.6 66 4.0 N 6 15 3 8 - - 0.0
23/09:30am 21.3 22.1 15.8 71 3.3 NW 6 11 3 6 - - 0.0
23/09:00am 19.8 20.5 15.7 77 2.5 WNW 6 9 3 5 - - 0.0
23/08:30am 18.3 19.2 15.2 82 1.8 NW 4 7 2 4 - - 0.0
23/08:00am 16.7 18.0 15.2 91 0.9 W 2 6 1 3 - - 0.0
23/07:30am 15.1 16.3 14.9 99 0.1 SSW 2 2 1 1 - - 0.0
23/07:00am 13.2 13.4 12.9 98 0.2 S 4 6 2 3 - - 0.0
23/06:30am 12.2 11.7 11.9 98 0.2 S 6 7 3 4 - - 0.0
23/06:00am 12.1 11.5 11.6 97 0.3 S 6 6 3 3 - - 0.0
23/05:30am 12.2 11.6 11.7 97 0.3 S 6 6 3 3 - - 0.0
23/05:00am 12.5 12.0 12.0 97 0.3 S 6 7 3 4 - - 0.0
23/04:30am 12.7 12.2 12.2 97 0.3 S 6 6 3 3 - - 0.0
23/04:00am 12.8 12.7 12.2 96 0.3 S 4 6 2 3 - - 0.0
23/03:30am 13.1 12.7 12.5 96 0.3 S 6 7 3 4 - - 0.0
23/03:00am 13.6 14.2 13.0 96 0.3 S 2 4 1 2 - - 0.0
23/02:30am 13.5 14.0 12.7 95 0.4 SSE 2 2 1 1 - - 0.0
23/02:00am 13.6 13.3 12.7 94 0.5 S 6 6 3 3 - - 0.0
23/01:30am 14.1 14.3 13.1 94 0.6 SE 4 6 2 3 - - 0.0
23/01:00am 14.4 14.7 13.3 93 0.6 E 4 4 2 2 - - 0.0
23/12:30am 14.6 14.9 13.3 92 0.7 ENE 4 6 2 3 - - 0.0
23/12:00am 14.9 15.2 13.4 91 0.8 SE 4 6 2 3 - - 0.0
 
Date/Time
EDT
Temp
°C
App
Temp
°C
Dew
Point
°C
Rel
Hum
%
Delta-T
°C
Wind Press
QNH
hPa
Press
MSL
hPa
Rain since
9am
mm
Dir  Spd
km/h
Gust
km/h
Spd
kts
Gust
kts
22/11:30pm 15.2 15.9 13.4 89 1.0 NNE 2 4 1 2 - - 0.0
22/11:00pm 15.6 16.0 13.8 89 1.0 ENE 4 6 2 3 - - 0.0
22/10:30pm 15.8 16.2 13.8 88 1.1 NE 4 7 2 4 - - 0.0
22/10:00pm 16.1 16.2 13.9 87 1.3 NE 6 7 3 4 - - 0.0
22/09:30pm 16.3 16.8 14.1 87 1.3 NNE 4 9 2 5 - - 0.0
22/09:00pm 16.7 16.9 14.2 85 1.4 NNE 6 9 3 5 - - 0.0
22/08:30pm 17.0 17.2 14.1 83 1.7 NE 6 9 3 5 - - 0.0
22/08:00pm 17.4 17.6 14.3 82 1.8 NE 6 11 3 6 - - 0.0
22/07:30pm 18.0 18.0 14.3 79 2.1 NE 7 13 4 7 - - 0.0
22/07:00pm 18.8 18.4 14.1 74 2.7 NE 9 20 5 11 - - 0.0
22/06:30pm 19.6 18.8 14.0 70 3.2 ENE 11 20 6 11 - - 0.0
22/06:00pm 20.5 19.3 13.9 66 3.8 ENE 13 24 7 13 - - 0.0
22/05:30pm 21.3 20.1 14.0 63 4.3 ENE 13 24 7 13 - - 0.0
22/05:00pm 21.7 20.2 14.1 62 4.5 NE 15 28 8 15 - - 0.0
22/04:30pm 23.0 21.9 14.3 58 5.2 NE 13 26 7 14 - - 0.0
22/04:00pm 23.7 22.8 14.9 57 5.3 ENE 13 26 7 14 - - 0.0
22/03:30pm 23.2 22.2 14.7 58 5.1 NE 13 22 7 12 - - 0.0
22/03:00pm 23.9 23.5 15.1 58 5.3 ENE 11 22 6 12 - - 0.0
22/02:30pm 24.1 22.8 14.8 56 5.6 ENE 15 28 8 15 - - 0.0
22/02:00pm 24.5 24.8 15.1 55 5.7 NE 7 22 4 12 - - 0.0
22/01:30pm 23.7 23.3 14.1 55 5.7 ENE 9 17 5 9 - - 0.0
22/01:00pm 23.4 22.8 13.6 54 5.7 NNE 9 17 5 9 - - 0.0
22/12:30pm 22.6 22.0 13.4 56 5.4 N 9 17 5 9 - - 0.0
22/12:00pm 21.9 21.3 13.5 59 4.9 N 9 17 5 9 - - 0.0
22/11:30am 21.1 21.0 13.8 63 4.2 N 7 15 4 8 - - 0.0
22/11:00am 20.8 20.8 13.5 63 4.2 NNW 6 17 3 9 - - 0.0
22/10:30am 19.6 19.4 13.5 68 3.5 N 7 15 4 8 - - 0.0
22/10:00am 19.8 19.8 13.7 68 3.5 N 6 13 3 7 - - 0.0
22/09:30am 18.3 18.5 13.2 72 2.9 WNW 4 7 2 4 - - 0.0
22/09:00am 17.9 17.8 13.2 74 2.7 WNW 6 9 3 5 - - 0.4
22/08:30am 17.5 17.9 13.6 78 2.2 WNW 4 7 2 4 - - 0.4
22/08:00am 16.5 17.1 13.2 81 1.9 NW 2 4 1 2 - - 0.4
22/07:30am 16.0 17.1 13.5 85 1.4 CALM 0 4 0 2 - - 0.4
22/07:00am 14.9 15.8 12.9 88 1.1 CALM 0 0 0 0 - - 0.4
22/06:30am 14.5 15.3 12.5 88 1.1 CALM 0 0 0 0 - - 0.4
22/06:00am 14.6 15.4 12.6 88 1.1 CALM 0 0 0 0 - - 0.4
22/05:30am 14.6 15.4 12.5 87 1.2 CALM 0 0 0 0 - - 0.4
22/05:00am 14.6 15.3 12.3 86 1.3 CALM 0 0 0 0 - - 0.4
22/04:30am 14.5 14.4 12.2 86 1.3 SW 4 6 2 3 - - 0.4
22/04:00am 14.4 14.7 12.3 87 1.1 SSW 2 4 1 2 - - 0.4
22/03:30am 14.4 14.3 12.1 86 1.3 SW 4 4 2 2 - - 0.4
22/03:00am 14.3 14.9 12.0 86 1.3 CALM 0 0 0 0 - - 0.4
22/02:30am 14.2 14.4 11.9 86 1.2 SSW 2 2 1 1 - - 0.4
22/02:00am 14.2 14.9 12.1 87 1.1 CALM 0 4 0 2 - - 0.4
22/01:30am 14.2 14.7 11.7 85 1.4 CALM 0 0 0 0 - - 0.4
22/01:00am 14.2 14.3 11.5 84 1.5 SW 2 2 1 1 - - 0.4
22/12:30am 14.7 15.2 11.7 82 1.6 CALM 0 0 0 0 - - 0.4
22/12:00am 14.8 14.9 11.6 81 1.7 SW 2 2 1 1 - - 0.4
 
Date/Time
EDT
Temp
°C
App
Temp
°C
Dew
Point
°C
Rel
Hum
%
Delta-T
°C
Wind Press
QNH
hPa
Press
MSL
hPa
Rain since
9am
mm
Dir  Spd
km/h
Gust
km/h
Spd
kts
Gust
kts
21/11:30pm 14.9 15.4 11.5 80 1.8 CALM 0 4 0 2 - - 0.4
21/11:00pm 14.9 15.1 11.7 81 1.7 SW 2 4 1 2 - - 0.4
21/10:30pm 14.9 15.1 11.7 81 1.7 SW 2 4 1 2 - - 0.4
21/10:00pm 14.9 15.0 11.5 80 1.8 SSW 2 6 1 3 - - 0.4
21/09:30pm 15.0 14.7 11.4 79 1.9 SSW 4 7 2 4 - - 0.4
21/09:00pm 15.2 14.9 11.6 79 2.0 S 4 7 2 4 - - 0.4
21/08:30pm 15.3 14.4 11.5 78 2.1 SSE 7 13 4 7 - - 0.4
21/08:00pm 15.3 14.4 11.5 78 2.1 SSE 7 15 4 8 - - 0.4
21/07:30pm 15.4 14.1 11.4 77 2.2 SE 9 19 5 10 - - 0.4
21/07:00pm 15.7 14.6 10.7 72 2.7 SSE 7 13 4 7 - - 0.0
21/06:30pm 16.0 14.1 10.5 70 2.9 SSE 11 19 6 10 - - 0.0
21/06:00pm 16.5 15.0 10.6 68 3.2 SSE 9 17 5 9 - - 0.0
21/05:30pm 17.0 15.1 10.6 66 3.4 SSE 11 24 6 13 - - 0.0
21/05:00pm 16.9 14.3 10.7 67 3.3 SSE 15 24 8 13 - - 0.0
21/04:30pm 17.0 14.4 10.6 66 3.4 SE 15 26 8 14 - - 0.0
21/04:00pm 16.9 15.1 10.7 67 3.3 SSE 11 20 6 11 - - 0.0
21/03:30pm 16.6 14.3 10.5 67 3.3 SE 13 26 7 14 - - 0.0
21/03:00pm 17.5 14.8 10.4 63 3.8 S 15 26 8 14 - - 0.0
21/02:30pm 18.0 15.4 10.6 62 4.0 SSE 15 24 8 13 - - 0.0
21/02:00pm 18.3 16.4 10.4 60 4.3 SSE 11 26 6 14 - - 0.0
21/01:30pm 17.9 15.3 9.5 58 4.4 SE 13 22 7 12 - - 0.0
21/01:00pm 17.9 15.9 10.3 61 4.1 SE 11 19 6 10 - - 0.0
21/12:30pm 17.5 15.6 10.4 63 3.8 SSE 11 20 6 11 - - 0.0
21/12:00pm 17.9 15.4 11.0 64 3.8 SSE 15 24 8 13 - - 0.0
21/11:30am 17.2 14.9 10.6 65 3.6 SSE 13 28 7 15 - - 0.0
21/11:00am 16.7 13.6 10.3 66 3.4 SE 17 30 9 16 - - 0.0
21/10:30am 15.9 12.9 10.7 71 2.8 SSE 17 26 9 14 - - 0.0
21/10:00am 15.3 13.1 10.7 74 2.5 SSE 13 26 7 14 - - 0.0
21/09:30am 15.0 13.7 11.2 78 2.0 S 9 20 5 11 - - 0.0
21/09:00am 14.0 12.3 11.3 84 1.4 S 11 26 6 14 - - 4.8
21/08:30am 13.8 11.4 11.5 86 1.2 S 15 32 8 17 - - 4.8
21/08:00am 13.9 12.0 11.8 87 1.1 S 13 24 7 13 - - 4.8
21/07:30am 13.6 10.6 12.0 90 0.9 SSE 19 30 10 16 - - 4.8
21/07:00am 13.4 10.8 12.1 92 0.7 SSE 17 32 9 17 - - 4.8
21/06:30am 13.4 10.6 12.5 94 0.5 SSE 19 32 10 17 - - 4.8
21/06:00am 14.0 12.0 12.6 91 0.8 SSE 15 22 8 12 - - 4.8
21/05:30am 14.1 11.7 12.7 91 0.8 SSE 17 32 9 17 - - 4.8
21/05:00am 14.6 13.3 13.6 94 0.6 SSE 13 20 7 11 - - 4.8
21/04:30am 15.2 14.1 14.2 94 0.6 SE 13 20 7 11 - - 4.8
21/04:00am 15.7 15.2 14.9 95 0.5 SE 11 20 6 11 - - 4.8
21/03:30am 16.9 17.8 16.1 95 0.5 SE 6 9 3 5 - - 4.8
21/03:00am 17.2 19.0 16.4 95 0.5 ESE 2 4 1 2 - - 4.8
21/02:30am 17.4 18.9 16.6 95 0.5 S 4 9 2 5 - - 4.8
21/02:00am 17.5 18.6 16.7 95 0.5 SSW 6 7 3 4 - - 4.8
21/01:30am 17.6 19.2 16.8 95 0.5 SSW 4 6 2 3 - - 4.8
21/01:00am 17.7 19.3 16.9 95 0.5 SSE 4 6 2 3 - - 4.8
21/12:30am 17.7 18.9 16.9 95 0.5 ESE 6 9 3 5 - - 4.8
21/12:00am 17.7 19.2 16.7 94 0.6 SSE 4 7 2 4 - - 4.8
 
Date/Time
EDT
Temp
°C
App
Temp
°C
Dew
Point
°C
Rel
Hum
%
Delta-T
°C
Wind Press
QNH
hPa
Press
MSL
hPa
Rain since
9am
mm
Dir  Spd
km/h
Gust
km/h
Spd
kts
Gust
kts
20/11:30pm 17.6 18.5 16.5 93 0.7 SE 7 11 4 6 - - 4.8
20/11:00pm 17.9 19.3 16.4 91 0.9 SSE 4 7 2 4 - - 4.8
20/10:30pm 18.0 18.5 16.5 91 0.9 SE 9 17 5 9 - - 4.8
20/10:00pm 18.1 19.0 16.6 91 0.9 E 7 13 4 7 - - 4.8
20/09:30pm 17.9 19.7 17.3 96 0.4 SE 4 6 2 3 - - 4.8
20/09:00pm 17.9 19.7 17.3 96 0.4 SSE 4 4 2 2 - - 4.8
20/08:30pm 18.1 20.5 17.1 94 0.6 CALM 0 0 0 0 - - 4.8

Latest Capital City Observations: Canberra | Sydney | Melbourne | Brisbane | Adelaide | Perth | Hobart | Darwin

Other Formats:

Comma delimited format used in spreadsheet applications
http://www.bom.gov.au/fwo/IDN60901/IDN60901.95684.axf

JavaScript Object Notation format (JSON) in row-major order
http://www.bom.gov.au/fwo/IDN60901/IDN60901.95684.json